CheckWX is a tool to help pilots better visualize weather data.  It is not intended as a substitute for an official pre-flight weather briefing.

21:53:45 UTC

KOFF METAR
Offutt AFB Airport
Omaha, Nebraska, USA
Current

58 mins ago

KOFF 232056Z 05003KT 10SM SCT080 SCT140 OVC250 21/07 A3010 RMK AO2A SLP187 RVRNO $
Observed
May-23 @ 20:56 UTC
Wind
  • 050° at 3 KTS
Visibility
10 SM
Flight Rules
VFR
Cloud Levels
  • Scattered at 8,000' AGL
  • Scattered at 14,000' AGL
  • Overcast at 25,000' AGL
Temperature
21°C / 70°F
Dewpoint
C / 45°F
Humidity
40%
Altimeter
30.1" Hg
Pressure
1019.32 hPa
Previous

2 hours ago

KOFF 231956Z 10006KT 10SM SCT080 SCT140 OVC250 20/08 A3008 RMK AO2A SLP182 RVRNO $
Observed
May-23 @ 19:56 UTC
Wind
  • 100° at 6 KTS
Visibility
10 SM
Flight Rules
VFR
Cloud Levels
  • Scattered at 8,000' AGL
  • Scattered at 14,000' AGL
  • Overcast at 25,000' AGL
Temperature
20°C / 68°F
Dewpoint
C / 46°F
Humidity
46%
Altimeter
30.08" Hg
Pressure
1018.62 hPa
Previous

3 hours ago

KOFF 231856Z 00000KT 10SM SCT080 BKN250 20/07 A3010 RMK AO2A SLP188 RVRNO $
Observed
May-23 @ 18:56 UTC
Visibility
10 SM
Flight Rules
VFR
Cloud Levels
  • Scattered at 8,000' AGL
  • Broken at 25,000' AGL
Temperature
20°C / 68°F
Dewpoint
C / 45°F
Humidity
43%
Altimeter
30.1" Hg
Pressure
1019.32 hPa